sensor_id;sensor_type;location;lat;lon;timestamp;pressure;altitude;pressure_sealevel;temperature
49593;BMP280;35499;51.482;4.264;2024-02-23T00:01:43;98815.41;;;6.24
49593;BMP280;35499;51.482;4.264;2024-02-23T00:04:08;98801.03;;;6.23
49593;BMP280;35499;51.482;4.264;2024-02-23T00:06:34;98820.56;;;6.22
49593;BMP280;35499;51.482;4.264;2024-02-23T00:08:59;98822.44;;;6.16
49593;BMP280;35499;51.482;4.264;2024-02-23T00:11:25;98834.38;;;6.14
49593;BMP280;35499;51.482;4.264;2024-02-23T00:13:50;98839.47;;;6.14
49593;BMP280;35499;51.482;4.264;2024-02-23T00:16:16;98832.66;;;6.14
49593;BMP280;35499;51.482;4.264;2024-02-23T00:18:41;98831.84;;;6.14
49593;BMP280;35499;51.482;4.264;2024-02-23T00:21:06;98840.34;;;6.13
49593;BMP280;35499;51.482;4.264;2024-02-23T00:23:31;98842.03;;;6.14
49593;BMP280;35499;51.482;4.264;2024-02-23T00:25:57;98837.81;;;6.13
49593;BMP280;35499;51.482;4.264;2024-02-23T00:28:22;98837.88;;;6.11
49593;BMP280;35499;51.482;4.264;2024-02-23T00:30:47;98848.00;;;6.13
49593;BMP280;35499;51.482;4.264;2024-02-23T00:33:13;98843.78;;;6.12
49593;BMP280;35499;51.482;4.264;2024-02-23T00:35:38;98847.19;;;6.12
49593;BMP280;35499;51.482;4.264;2024-02-23T00:38:04;98854.00;;;6.12
49593;BMP280;35499;51.482;4.264;2024-02-23T00:40:29;98854.81;;;6.12
49593;BMP280;35499;51.482;4.264;2024-02-23T00:42:54;98855.63;;;6.13
49593;BMP280;35499;51.482;4.264;2024-02-23T00:45:20;98854.00;;;6.12
49593;BMP280;35499;51.482;4.264;2024-02-23T00:47:45;98866.59;;;6.16
49593;BMP280;35499;51.482;4.264;2024-02-23T00:50:14;98867.31;;;6.21
49593;BMP280;35499;51.482;4.264;2024-02-23T00:52:39;98869.84;;;6.21
49593;BMP280;35499;51.482;4.264;2024-02-23T00:55:06;98863.03;;;6.22
49593;BMP280;35499;51.482;4.264;2024-02-23T00:57:33;98865.66;;;6.19
49593;BMP280;35499;51.482;4.264;2024-02-23T00:59:59;98863.19;;;6.17
49593;BMP280;35499;51.482;4.264;2024-02-23T01:02:24;98865.72;;;6.17
49593;BMP280;35499;51.482;4.264;2024-02-23T01:04:49;98873.38;;;6.17
49593;BMP280;35499;51.482;4.264;2024-02-23T01:07:15;98878.47;;;6.17
49593;BMP280;35499;51.482;4.264;2024-02-23T01:09:40;98875.78;;;6.22
49593;BMP280;35499;51.482;4.264;2024-02-23T01:12:05;98899.44;;;6.26
49593;BMP280;35499;51.482;4.264;2024-02-23T01:14:31;98895.03;;;6.31
49593;BMP280;35499;51.482;4.264;2024-02-23T01:16:56;98885.47;;;6.38
49593;BMP280;35499;51.482;4.264;2024-02-23T01:19:21;98886.16;;;6.44
49593;BMP280;35499;51.482;4.264;2024-02-23T01:21:47;98882.72;;;6.45
49593;BMP280;35499;51.482;4.264;2024-02-23T01:24:12;98887.88;;;6.43
49593;BMP280;35499;51.482;4.264;2024-02-23T01:26:37;98909.09;;;6.44
49593;BMP280;35499;51.482;4.264;2024-02-23T01:29:03;98899.75;;;6.43
49593;BMP280;35499;51.482;4.264;2024-02-23T01:31:28;98904.13;;;6.40
49593;BMP280;35499;51.482;4.264;2024-02-23T01:33:54;98904.13;;;6.40
49593;BMP280;35499;51.482;4.264;2024-02-23T01:36:19;98907.50;;;6.40
49593;BMP280;35499;51.482;4.264;2024-02-23T01:38:44;98910.88;;;6.42
49593;BMP280;35499;51.482;4.264;2024-02-23T01:41:10;98907.50;;;6.40
49593;BMP280;35499;51.482;4.264;2024-02-23T01:43:37;98938.00;;;6.43
49593;BMP280;35499;51.482;4.264;2024-02-23T01:46:03;98916.84;;;6.41
49593;BMP280;35499;51.482;4.264;2024-02-23T01:48:30;98918.59;;;6.38
49593;BMP280;35499;51.482;4.264;2024-02-23T01:50:56;98922.97;;;6.34
49593;BMP280;35499;51.482;4.264;2024-02-23T01:53:22;98929.06;;;6.29
49593;BMP280;35499;51.482;4.264;2024-02-23T01:55:48;98936.06;;;6.23
49593;BMP280;35499;51.482;4.264;2024-02-23T01:58:14;98925.88;;;6.23
49593;BMP280;35499;51.482;4.264;2024-02-23T02:00:39;98930.06;;;6.24
49593;BMP280;35499;51.482;4.264;2024-02-23T02:03:05;98931.75;;;6.25
49593;BMP280;35499;51.482;4.264;2024-02-23T02:05:30;98927.56;;;6.22
49593;BMP280;35499;51.482;4.264;2024-02-23T02:07:56;98926.81;;;6.19
49593;BMP280;35499;51.482;4.264;2024-02-23T02:10:25;98921.88;;;6.13
49593;BMP280;35499;51.482;4.264;2024-02-23T02:12:50;98926.25;;;6.08
49593;BMP280;35499;51.482;4.264;2024-02-23T02:15:16;98917.88;;;6.05
49593;BMP280;35499;51.482;4.264;2024-02-23T02:17:41;98925.59;;;6.02
49593;BMP280;35499;51.482;4.264;2024-02-23T02:20:11;98909.50;;;6.00
49593;BMP280;35499;51.482;4.264;2024-02-23T02:22:37;98915.53;;;5.97
49593;BMP280;35499;51.482;4.264;2024-02-23T02:25:02;98925.72;;;5.97
49593;BMP280;35499;51.482;4.264;2024-02-23T02:27:27;98931.72;;;5.95
49593;BMP280;35499;51.482;4.264;2024-02-23T02:29:53;98934.28;;;5.93
49593;BMP280;35499;51.482;4.264;2024-02-23T02:32:18;98917.44;;;5.88
49593;BMP280;35499;51.482;4.264;2024-02-23T02:34:43;98926.78;;;5.89
49593;BMP280;35499;51.482;4.264;2024-02-23T02:37:09;98914.91;;;5.88
49593;BMP280;35499;51.482;4.264;2024-02-23T02:39:34;98916.59;;;5.89
49593;BMP280;35499;51.482;4.264;2024-02-23T02:42:00;98923.38;;;5.89
49593;BMP280;35499;51.482;4.264;2024-02-23T02:44:25;98924.09;;;5.93
49593;BMP280;35499;51.482;4.264;2024-02-23T02:46:51;98920.78;;;5.91
49593;BMP280;35499;51.482;4.264;2024-02-23T02:49:17;98932.63;;;5.92
49593;BMP280;35499;51.482;4.264;2024-02-23T02:51:42;98935.22;;;5.91
49593;BMP280;35499;51.482;4.264;2024-02-23T02:54:07;98935.19;;;5.92
49593;BMP280;35499;51.482;4.264;2024-02-23T02:56:33;98931.81;;;5.92
49593;BMP280;35499;51.482;4.264;2024-02-23T02:58:58;98933.44;;;5.93
49593;BMP280;35499;51.482;4.264;2024-02-23T03:01:24;98930.97;;;5.91
49593;BMP280;35499;51.482;4.264;2024-02-23T03:03:49;98931.81;;;5.92
49593;BMP280;35499;51.482;4.264;2024-02-23T03:06:14;98932.59;;;5.94
49593;BMP280;35499;51.482;4.264;2024-02-23T03:08:42;98927.47;;;5.95
49593;BMP280;35499;51.482;4.264;2024-02-23T03:11:07;98924.88;;;5.97
49593;BMP280;35499;51.482;4.264;2024-02-23T03:13:33;98928.28;;;5.96
49593;BMP280;35499;51.482;4.264;2024-02-23T03:15:58;98935.06;;;5.97
49593;BMP280;35499;51.482;4.264;2024-02-23T03:18:23;98925.72;;;5.97
49593;BMP280;35499;51.482;4.264;2024-02-23T03:20:49;98922.28;;;5.98
49593;BMP280;35499;51.482;4.264;2024-02-23T03:23:14;98923.13;;;5.99
49593;BMP280;35499;51.482;4.264;2024-02-23T03:25:39;98918.00;;;5.99
49593;BMP280;35499;51.482;4.264;2024-02-23T03:28:04;98917.19;;;5.98
49593;BMP280;35499;51.482;4.264;2024-02-23T03:30:30;98924.81;;;5.98
49593;BMP280;35499;51.482;4.264;2024-02-23T03:32:55;98918.00;;;5.99
49593;BMP280;35499;51.482;4.264;2024-02-23T03:35:20;98911.22;;;5.99
49593;BMP280;35499;51.482;4.264;2024-02-23T03:37:46;98915.44;;;6.00
49593;BMP280;35499;51.482;4.264;2024-02-23T03:40:36;98907.78;;;6.02
49593;BMP280;35499;51.482;4.264;2024-02-23T03:43:02;98914.47;;;6.04
49593;BMP280;35499;51.482;4.264;2024-02-23T03:45:27;98941.50;;;6.09
49593;BMP280;35499;51.482;4.264;2024-02-23T03:47:53;98937.16;;;6.13
49593;BMP280;35499;51.482;4.264;2024-02-23T03:50:19;98921.72;;;6.19
49593;BMP280;35499;51.482;4.264;2024-02-23T03:52:44;98934.31;;;6.23
49593;BMP280;35499;51.482;4.264;2024-02-23T03:55:09;98937.66;;;6.25
49593;BMP280;35499;51.482;4.264;2024-02-23T03:57:35;98917.16;;;6.29
49593;BMP280;35499;51.482;4.264;2024-02-23T04:00:00;98931.47;;;6.33
49593;BMP280;35499;51.482;4.264;2024-02-23T04:02:25;98917.88;;;6.34
49593;BMP280;35499;51.482;4.264;2024-02-23T04:04:51;98922.97;;;6.34
49593;BMP280;35499;51.482;4.264;2024-02-23T04:07:16;98920.41;;;6.34
49593;BMP280;35499;51.482;4.264;2024-02-23T04:09:41;98922.09;;;6.35
49593;BMP280;35499;51.482;4.264;2024-02-23T04:12:07;98911.91;;;6.35
49593;BMP280;35499;51.482;4.264;2024-02-23T04:14:33;98925.50;;;6.34
49593;BMP280;35499;51.482;4.264;2024-02-23T04:17:04;98917.81;;;6.37
49593;BMP280;35499;51.482;4.264;2024-02-23T04:19:30;98921.97;;;6.40
49593;BMP280;35499;51.482;4.264;2024-02-23T04:21:55;98910.19;;;6.36
49593;BMP280;35499;51.482;4.264;2024-02-23T04:24:20;98913.66;;;6.33
49593;BMP280;35499;51.482;4.264;2024-02-23T04:26:46;98922.38;;;6.25
49593;BMP280;35499;51.482;4.264;2024-02-23T04:29:11;98908.75;;;6.27
49593;BMP280;35499;51.482;4.264;2024-02-23T04:31:37;98906.25;;;6.25
49593;BMP280;35499;51.482;4.264;2024-02-23T04:34:03;98893.56;;;6.23
49593;BMP280;35499;51.482;4.264;2024-02-23T04:36:28;98906.34;;;6.22
49593;BMP280;35499;51.482;4.264;2024-02-23T04:38:54;98914.06;;;6.19
49593;BMP280;35499;51.482;4.264;2024-02-23T04:41:22;98899.59;;;6.21
49593;BMP280;35499;51.482;4.264;2024-02-23T04:43:48;98901.25;;;6.22
49593;BMP280;35499;51.482;4.264;2024-02-23T04:46:13;98904.66;;;6.22
49593;BMP280;35499;51.482;4.264;2024-02-23T04:48:38;98902.09;;;6.22
49593;BMP280;35499;51.482;4.264;2024-02-23T04:51:04;98902.03;;;6.24
49593;BMP280;35499;51.482;4.264;2024-02-23T04:53:30;98902.94;;;6.23
49593;BMP280;35499;51.482;4.264;2024-02-23T04:55:55;98896.16;;;6.22
49593;BMP280;35499;51.482;4.264;2024-02-23T04:58:20;98895.31;;;6.21
49593;BMP280;35499;51.482;4.264;2024-02-23T05:00:46;98905.53;;;6.21
49593;BMP280;35499;51.482;4.264;2024-02-23T05:03:11;98897.06;;;6.19
49593;BMP280;35499;51.482;4.264;2024-02-23T05:05:36;98896.22;;;6.19
49593;BMP280;35499;51.482;4.264;2024-02-23T05:08:02;98911.59;;;6.17
49593;BMP280;35499;51.482;4.264;2024-02-23T05:10:27;98903.97;;;6.16
49593;BMP280;35499;51.482;4.264;2024-02-23T05:12:56;98915.88;;;6.15
49593;BMP280;35499;51.482;4.264;2024-02-23T05:15:21;98913.34;;;6.14
49593;BMP280;35499;51.482;4.264;2024-02-23T05:17:47;98918.44;;;6.14
49593;BMP280;35499;51.482;4.264;2024-02-23T05:20:13;98916.84;;;6.11
49593;BMP280;35499;51.482;4.264;2024-02-23T05:22:39;98915.13;;;6.12
49593;BMP280;35499;51.482;4.264;2024-02-23T05:25:08;98896.50;;;6.10
49593;BMP280;35499;51.482;4.264;2024-02-23T05:27:34;98895.69;;;6.08
49593;BMP280;35499;51.482;4.264;2024-02-23T05:29:59;98921.13;;;6.09
49593;BMP280;35499;51.482;4.264;2024-02-23T05:32:25;98908.34;;;6.11
49593;BMP280;35499;51.482;4.264;2024-02-23T05:34:50;98906.56;;;6.14
49593;BMP280;35499;51.482;4.264;2024-02-23T05:37:18;98896.31;;;6.16
49593;BMP280;35499;51.482;4.264;2024-02-23T05:39:44;98894.53;;;6.19
49593;BMP280;35499;51.482;4.264;2024-02-23T05:42:11;98892.81;;;6.20
49593;BMP280;35499;51.482;4.264;2024-02-23T05:44:36;98891.97;;;6.19
49593;BMP280;35499;51.482;4.264;2024-02-23T05:47:02;98891.94;;;6.21
49593;BMP280;35499;51.482;4.264;2024-02-23T05:49:27;98896.09;;;6.23
49593;BMP280;35499;51.482;4.264;2024-02-23T05:51:52;98896.94;;;6.24
49593;BMP280;35499;51.482;4.264;2024-02-23T05:54:18;98899.50;;;6.24
49593;BMP280;35499;51.482;4.264;2024-02-23T05:56:44;98888.47;;;6.23
49593;BMP280;35499;51.482;4.264;2024-02-23T05:59:09;98899.44;;;6.26
49593;BMP280;35499;51.482;4.264;2024-02-23T06:01:34;98901.97;;;6.26
49593;BMP280;35499;51.482;4.264;2024-02-23T06:04:00;98904.53;;;6.26
49593;BMP280;35499;51.482;4.264;2024-02-23T06:06:25;98902.75;;;6.28
49593;BMP280;35499;51.482;4.264;2024-02-23T06:08:50;98891.69;;;6.29
49593;BMP280;35499;51.482;4.264;2024-02-23T06:11:16;98889.13;;;6.29
49593;BMP280;35499;51.482;4.264;2024-02-23T06:13:41;98888.22;;;6.32
49593;BMP280;35499;51.482;4.264;2024-02-23T06:16:10;98883.06;;;6.33
49593;BMP280;35499;51.482;4.264;2024-02-23T06:18:36;98877.97;;;6.33
49593;BMP280;35499;51.482;4.264;2024-02-23T06:21:11;98885.63;;;6.33
49593;BMP280;35499;51.482;4.264;2024-02-23T06:23:36;98892.41;;;6.33
49593;BMP280;35499;51.482;4.264;2024-02-23T06:26:01;98898.41;;;6.32
49593;BMP280;35499;51.482;4.264;2024-02-23T06:28:27;98904.41;;;6.29
49593;BMP280;35499;51.482;4.264;2024-02-23T06:30:52;98878.09;;;6.29
49593;BMP280;35499;51.482;4.264;2024-02-23T06:33:17;98876.44;;;6.28
49593;BMP280;35499;51.482;4.264;2024-02-23T06:35:43;98877.25;;;6.28
49593;BMP280;35499;51.482;4.264;2024-02-23T06:38:08;98879.78;;;6.30
49593;BMP280;35499;51.482;4.264;2024-02-23T06:40:34;98879.66;;;6.34
49593;BMP280;35499;51.482;4.264;2024-02-23T06:43:00;98883.00;;;6.36
49593;BMP280;35499;51.482;4.264;2024-02-23T06:45:25;98878.63;;;6.40
49593;BMP280;35499;51.482;4.264;2024-02-23T06:47:51;98885.31;;;6.43
49593;BMP280;35499;51.482;4.264;2024-02-23T06:50:16;98873.41;;;6.44
49593;BMP280;35499;51.482;4.264;2024-02-23T06:52:41;98894.63;;;6.44
49593;BMP280;35499;51.482;4.264;2024-02-23T06:55:07;98881.84;;;6.46
49593;BMP280;35499;51.482;4.264;2024-02-23T06:57:33;98885.19;;;6.48
49593;BMP280;35499;51.482;4.264;2024-02-23T06:59:58;98875.81;;;6.48
49593;BMP280;35499;51.482;4.264;2024-02-23T07:02:23;98886.84;;;6.49
49593;BMP280;35499;51.482;4.264;2024-02-23T07:04:48;98878.34;;;6.50
49593;BMP280;35499;51.482;4.264;2024-02-23T07:07:14;98871.50;;;6.52
49593;BMP280;35499;51.482;4.264;2024-02-23T07:09:39;98871.34;;;6.56
49593;BMP280;35499;51.482;4.264;2024-02-23T07:12:05;98874.69;;;6.58
49593;BMP280;35499;51.482;4.264;2024-02-23T07:14:30;98884.88;;;6.58
49593;BMP280;35499;51.482;4.264;2024-02-23T07:16:56;98872.97;;;6.59
49593;BMP280;35499;51.482;4.264;2024-02-23T07:19:21;98884.00;;;6.59
49593;BMP280;35499;51.482;4.264;2024-02-23T07:21:47;98885.72;;;6.59
49593;BMP280;35499;51.482;4.264;2024-02-23T07:24:13;98886.59;;;6.58
49593;BMP280;35499;51.482;4.264;2024-02-23T07:26:38;98873.06;;;6.56
49593;BMP280;35499;51.482;4.264;2024-02-23T07:29:03;98856.09;;;6.55
49593;BMP280;35499;51.482;4.264;2024-02-23T07:31:29;98879.22;;;6.49
49593;BMP280;35499;51.482;4.264;2024-02-23T07:33:54;98869.31;;;6.39
49593;BMP280;35499;51.482;4.264;2024-02-23T07:36:19;98877.19;;;6.31
49593;BMP280;35499;51.482;4.264;2024-02-23T07:38:45;98867.97;;;6.27
49593;BMP280;35499;51.482;4.264;2024-02-23T07:41:11;98874.09;;;6.21
49593;BMP280;35499;51.482;4.264;2024-02-23T07:43:38;98867.31;;;6.21
49593;BMP280;35499;51.482;4.264;2024-02-23T07:46:03;98883.47;;;6.20
49593;BMP280;35499;51.482;4.264;2024-02-23T07:48:30;98864.09;;;6.15
49593;BMP280;35499;51.482;4.264;2024-02-23T07:50:55;98855.72;;;6.10
49593;BMP280;35499;51.482;4.264;2024-02-23T07:53:21;98864.41;;;6.03
49593;BMP280;35499;51.482;4.264;2024-02-23T07:55:46;98859.41;;;6.00
49593;BMP280;35499;51.482;4.264;2024-02-23T07:58:11;98864.53;;;5.99
49593;BMP280;35499;51.482;4.264;2024-02-23T08:00:36;98880.66;;;5.99
49593;BMP280;35499;51.482;4.264;2024-02-23T08:03:04;98883.19;;;5.99
49593;BMP280;35499;51.482;4.264;2024-02-23T08:05:29;98865.41;;;5.98
49593;BMP280;35499;51.482;4.264;2024-02-23T08:07:54;98865.47;;;5.96
49593;BMP280;35499;51.482;4.264;2024-02-23T08:10:20;98863.78;;;5.95
49593;BMP280;35499;51.482;4.264;2024-02-23T08:12:46;98869.84;;;5.91
49593;BMP280;35499;51.482;4.264;2024-02-23T08:15:12;98873.16;;;5.93
49593;BMP280;35499;51.482;4.264;2024-02-23T08:17:37;98883.31;;;5.95
49593;BMP280;35499;51.482;4.264;2024-02-23T08:20:03;98879.94;;;5.94
49593;BMP280;35499;51.482;4.264;2024-02-23T08:22:29;98886.81;;;5.92
49593;BMP280;35499;51.482;4.264;2024-02-23T08:24:54;98890.22;;;5.91
49593;BMP280;35499;51.482;4.264;2024-02-23T08:27:20;98891.13;;;5.89
49593;BMP280;35499;51.482;4.264;2024-02-23T08:29:45;98882.88;;;5.80
49593;BMP280;35499;51.482;4.264;2024-02-23T08:32:10;98883.09;;;5.72
49593;BMP280;35499;51.482;4.264;2024-02-23T08:34:36;98882.28;;;5.71
49593;BMP280;35499;51.482;4.264;2024-02-23T08:37:01;98881.47;;;5.70
49593;BMP280;35499;51.482;4.264;2024-02-23T08:39:27;98885.59;;;5.74
49593;BMP280;35499;51.482;4.264;2024-02-23T08:41:52;98879.47;;;5.81
49593;BMP280;35499;51.482;4.264;2024-02-23T08:44:18;98882.59;;;5.91
49593;BMP280;35499;51.482;4.264;2024-02-23T08:46:44;98876.44;;;5.98
49593;BMP280;35499;51.482;4.264;2024-02-23T08:49:09;98854.94;;;6.08
49593;BMP280;35499;51.482;4.264;2024-02-23T08:51:34;98877.63;;;6.17
49593;BMP280;35499;51.482;4.264;2024-02-23T08:53:59;98883.38;;;6.23
49593;BMP280;35499;51.482;4.264;2024-02-23T08:56:29;98892.47;;;6.31
49593;BMP280;35499;51.482;4.264;2024-02-23T08:58:55;98867.75;;;6.35
49593;BMP280;35499;51.482;4.264;2024-02-23T09:01:20;98877.84;;;6.38
49593;BMP280;35499;51.482;4.264;2024-02-23T09:03:45;98870.09;;;6.42
49593;BMP280;35499;51.482;4.264;2024-02-23T09:06:10;98871.66;;;6.46
49593;BMP280;35499;51.482;4.264;2024-02-23T09:08:36;98902.16;;;6.49
49593;BMP280;35499;51.482;4.264;2024-02-23T09:11:01;98886.78;;;6.52
49593;BMP280;35499;51.482;4.264;2024-02-23T09:13:27;98873.09;;;6.54
49593;BMP280;35499;51.482;4.264;2024-02-23T09:15:54;98878.91;;;6.59
49593;BMP280;35499;51.482;4.264;2024-02-23T09:18:20;98892.31;;;6.65
49593;BMP280;35499;51.482;4.264;2024-02-23T09:20:45;98883.63;;;6.72
49593;BMP280;35499;51.482;4.264;2024-02-23T09:23:10;98887.63;;;6.79
49593;BMP280;35499;51.482;4.264;2024-02-23T09:25:37;98897.66;;;6.85
49593;BMP280;35499;51.482;4.264;2024-02-23T09:28:03;98893.25;;;6.90
49593;BMP280;35499;51.482;4.264;2024-02-23T09:30:28;98890.59;;;6.93
49593;BMP280;35499;51.482;4.264;2024-02-23T09:32:53;98901.59;;;6.95
49593;BMP280;35499;51.482;4.264;2024-02-23T09:35:20;98887.09;;;6.97
49593;BMP280;35499;51.482;4.264;2024-02-23T09:37:45;98912.47;;;7.01
49593;BMP280;35499;51.482;4.264;2024-02-23T09:40:11;98905.59;;;7.03
49593;BMP280;35499;51.482;4.264;2024-02-23T09:42:37;98898.00;;;7.01
49593;BMP280;35499;51.482;4.264;2024-02-23T09:45:05;98895.44;;;7.01
49593;BMP280;35499;51.482;4.264;2024-02-23T09:47:30;98914.88;;;7.05
49593;BMP280;35499;51.482;4.264;2024-02-23T09:49:56;98912.22;;;7.08
49593;BMP280;35499;51.482;4.264;2024-02-23T09:52:22;98929.94;;;7.13
49593;BMP280;35499;51.482;4.264;2024-02-23T09:54:48;98917.00;;;7.18
49593;BMP280;35499;51.482;4.264;2024-02-23T09:57:15;98924.44;;;7.26
49593;BMP280;35499;51.482;4.264;2024-02-23T09:59:40;98933.47;;;7.35
49593;BMP280;35499;51.482;4.264;2024-02-23T10:04:30;98945.25;;;7.39
49593;BMP280;35499;51.482;4.264;2024-02-23T10:06:56;98955.34;;;7.42
49593;BMP280;35499;51.482;4.264;2024-02-23T10:09:21;98939.09;;;7.46
49593;BMP280;35499;51.482;4.264;2024-02-23T10:11:56;98949.03;;;7.53
49593;BMP280;35499;51.482;4.264;2024-02-23T10:14:21;98964.19;;;7.58
49593;BMP280;35499;51.482;4.264;2024-02-23T10:16:47;98963.25;;;7.62
49593;BMP280;35499;51.482;4.264;2024-02-23T10:19:12;98963.03;;;7.68
49593;BMP280;35499;51.482;4.264;2024-02-23T10:21:37;98966.19;;;7.75
49593;BMP280;35499;51.482;4.264;2024-02-23T10:24:05;98964.41;;;7.77
49593;BMP280;35499;51.482;4.264;2024-02-23T10:26:30;98961.91;;;7.76
49593;BMP280;35499;51.482;4.264;2024-02-23T10:28:55;98977.16;;;7.77
49593;BMP280;35499;51.482;4.264;2024-02-23T10:31:22;98975.38;;;7.81
49593;BMP280;35499;51.482;4.264;2024-02-23T10:33:50;98971.53;;;7.93
49593;BMP280;35499;51.482;4.264;2024-02-23T10:36:17;98991.69;;;8.02
49593;BMP280;35499;51.482;4.264;2024-02-23T10:38:45;98989.06;;;8.05
49593;BMP280;35499;51.482;4.264;2024-02-23T10:41:13;98987.97;;;8.12
49593;BMP280;35499;51.482;4.264;2024-02-23T10:43:47;98995.69;;;8.10
49593;BMP280;35499;51.482;4.264;2024-02-23T10:46:13;99009.47;;;8.06
49593;BMP280;35499;51.482;4.264;2024-02-23T10:48:41;98992.53;;;8.03
49593;BMP280;35499;51.482;4.264;2024-02-23T10:51:07;99019.03;;;8.00
49593;BMP280;35499;51.482;4.264;2024-02-23T10:53:34;99008.84;;;7.97
49593;BMP280;35499;51.482;4.264;2024-02-23T10:56:00;99018.19;;;8.00
49593;BMP280;35499;51.482;4.264;2024-02-23T10:58:25;99012.00;;;8.06
49593;BMP280;35499;51.482;4.264;2024-02-23T11:00:51;99020.41;;;8.34
49593;BMP280;35499;51.482;4.264;2024-02-23T11:03:17;99026.88;;;8.43
49593;BMP280;35499;51.482;4.264;2024-02-23T11:05:47;99019.84;;;8.50
49593;BMP280;35499;51.482;4.264;2024-02-23T11:08:12;99020.56;;;8.53
49593;BMP280;35499;51.482;4.264;2024-02-23T11:10:42;99037.41;;;8.82
49593;BMP280;35499;51.482;4.264;2024-02-23T11:13:08;99024.66;;;9.05
49593;BMP280;35499;51.482;4.264;2024-02-23T11:15:33;99028.09;;;9.04
49593;BMP280;35499;51.482;4.264;2024-02-23T11:18:21;99035.16;;;9.20
49593;BMP280;35499;51.482;4.264;2024-02-23T11:20:56;99033.00;;;9.53
49593;BMP280;35499;51.482;4.264;2024-02-23T11:23:23;99035.47;;;9.98
49593;BMP280;35499;51.482;4.264;2024-02-23T11:26:04;99015.16;;;10.53
49593;BMP280;35499;51.482;4.264;2024-02-23T11:28:31;99008.97;;;11.14
49593;BMP280;35499;51.482;4.264;2024-02-23T11:30:57;99005.75;;;11.27
49593;BMP280;35499;51.482;4.264;2024-02-23T11:33:28;99011.94;;;11.05
49593;BMP280;35499;51.482;4.264;2024-02-23T11:36:05;99012.56;;;11.10
49593;BMP280;35499;51.482;4.264;2024-02-23T11:38:32;99002.78;;;11.72
49593;BMP280;35499;51.482;4.264;2024-02-23T11:40:57;99021.75;;;12.20
49593;BMP280;35499;51.482;4.264;2024-02-23T11:43:23;99010.22;;;12.45
49593;BMP280;35499;51.482;4.264;2024-02-23T11:45:48;99001.84;;;12.57
49593;BMP280;35499;51.482;4.264;2024-02-23T11:48:14;98994.19;;;12.88
49593;BMP280;35499;51.482;4.264;2024-02-23T11:50:39;98993.44;;;12.87
49593;BMP280;35499;51.482;4.264;2024-02-23T11:53:04;98992.88;;;12.97
49593;BMP280;35499;51.482;4.264;2024-02-23T11:55:30;98992.94;;;13.27
49593;BMP280;35499;51.482;4.264;2024-02-23T11:57:58;99002.16;;;13.46
49593;BMP280;35499;51.482;4.264;2024-02-23T12:00:24;98992.38;;;13.82
49593;BMP280;35499;51.482;4.264;2024-02-23T12:02:49;98993.28;;;13.81
49593;BMP280;35499;51.482;4.264;2024-02-23T12:05:16;98995.25;;;13.77
49593;BMP280;35499;51.482;4.264;2024-02-23T12:07:41;99003.59;;;13.51
49593;BMP280;35499;51.482;4.264;2024-02-23T12:10:08;98999.75;;;13.28
49593;BMP280;35499;51.482;4.264;2024-02-23T12:12:33;99003.97;;;12.82
49593;BMP280;35499;51.482;4.264;2024-02-23T12:14:59;99004.84;;;12.50
49593;BMP280;35499;51.482;4.264;2024-02-23T12:17:25;99015.63;;;11.90
49593;BMP280;35499;51.482;4.264;2024-02-23T12:20:02;99011.34;;;11.36
49593;BMP280;35499;51.482;4.264;2024-02-23T12:22:27;99031.28;;;11.12
49593;BMP280;35499;51.482;4.264;2024-02-23T12:24:53;99010.66;;;11.33
49593;BMP280;35499;51.482;4.264;2024-02-23T12:27:21;99011.38;;;11.71
49593;BMP280;35499;51.482;4.264;2024-02-23T12:29:52;99012.28;;;11.88
49593;BMP280;35499;51.482;4.264;2024-02-23T12:32:19;99019.19;;;12.20
49593;BMP280;35499;51.482;4.264;2024-02-23T12:34:45;99008.69;;;12.25
49593;BMP280;35499;51.482;4.264;2024-02-23T12:37:10;99014.44;;;12.13
49593;BMP280;35499;51.482;4.264;2024-02-23T12:39:36;99012.84;;;11.76
49593;BMP280;35499;51.482;4.264;2024-02-23T12:42:01;99004.13;;;11.44
49593;BMP280;35499;51.482;4.264;2024-02-23T12:44:27;99015.19;;;11.26
49593;BMP280;35499;51.482;4.264;2024-02-23T12:46:52;99025.47;;;11.26
49593;BMP280;35499;51.482;4.264;2024-02-23T12:49:17;99019.97;;;11.16
49593;BMP280;35499;51.482;4.264;2024-02-23T12:51:43;99021.44;;;11.03
49593;BMP280;35499;51.482;4.264;2024-02-23T12:54:08;99011.44;;;10.97
49593;BMP280;35499;51.482;4.264;2024-02-23T12:56:34;99023.28;;;10.82
49593;BMP280;35499;51.482;4.264;2024-02-23T12:59:00;99022.56;;;10.78
49593;BMP280;35499;51.482;4.264;2024-02-23T13:01:26;99022.63;;;10.77
49593;BMP280;35499;51.482;4.264;2024-02-23T13:03:51;99014.94;;;10.77
49593;BMP280;35499;51.482;4.264;2024-02-23T13:06:16;99016.22;;;10.67
49593;BMP280;35499;51.482;4.264;2024-02-23T13:08:42;99019.81;;;10.63
49593;BMP280;35499;51.482;4.264;2024-02-23T13:11:08;99008.03;;;10.59
49593;BMP280;35499;51.482;4.264;2024-02-23T13:13:33;99009.81;;;10.57
49593;BMP280;35499;51.482;4.264;2024-02-23T13:15:59;99002.91;;;10.59
49593;BMP280;35499;51.482;4.264;2024-02-23T13:18:25;99014.28;;;10.72
49593;BMP280;35499;51.482;4.264;2024-02-23T13:20:50;99005.63;;;11.12
49593;BMP280;35499;51.482;4.264;2024-02-23T13:23:15;99008.69;;;11.56
49593;BMP280;35499;51.482;4.264;2024-02-23T13:25:41;98995.66;;;11.60
49593;BMP280;35499;51.482;4.264;2024-02-23T13:28:08;98997.88;;;11.49
49593;BMP280;35499;51.482;4.264;2024-02-23T13:30:34;99022.44;;;11.19
49593;BMP280;35499;51.482;4.264;2024-02-23T13:33:00;99012.56;;;11.10
49593;BMP280;35499;51.482;4.264;2024-02-23T13:35:26;99011.78;;;11.27
49593;BMP280;35499;51.482;4.264;2024-02-23T13:37:52;99004.25;;;11.23
49593;BMP280;35499;51.482;4.264;2024-02-23T13:40:17;99019.09;;;11.17
49593;BMP280;35499;51.482;4.264;2024-02-23T13:42:43;98998.94;;;11.26
49593;BMP280;35499;51.482;4.264;2024-02-23T13:45:11;99000.94;;;11.39
49593;BMP280;35499;51.482;4.264;2024-02-23T13:47:39;99020.34;;;11.26
49593;BMP280;35499;51.482;4.264;2024-02-23T13:50:05;99016.56;;;10.97
49593;BMP280;35499;51.482;4.264;2024-02-23T13:52:31;99010.78;;;10.74
49593;BMP280;35499;51.482;4.264;2024-02-23T13:54:56;99022.78;;;10.55
49593;BMP280;35499;51.482;4.264;2024-02-23T13:57:22;99018.31;;;10.40
49593;BMP280;35499;51.482;4.264;2024-02-23T13:59:47;99016.25;;;10.28
49593;BMP280;35499;51.482;4.264;2024-02-23T14:02:13;99013.41;;;10.15
49593;BMP280;35499;51.482;4.264;2024-02-23T14:04:38;99010.19;;;10.10
49593;BMP280;35499;51.482;4.264;2024-02-23T14:07:04;99017.09;;;10.08
49593;BMP280;35499;51.482;4.264;2024-02-23T14:09:30;99014.50;;;10.09
49593;BMP280;35499;51.482;4.264;2024-02-23T14:11:56;99018.66;;;10.12
49593;BMP280;35499;51.482;4.264;2024-02-23T14:14:21;99011.72;;;10.14